Terminal Aerodrome Forecast
Issued by NWS

Current Version | Previous Version | Graphics & Text | Print | Product List | Glossary On
Versions: 1 2 3 4 5 6 7 8 9 10 11 12 13 14 15 16 17 18 19 20
000
FTUS41 KILN 282300
TAFLUK
TAF
KLUK 282337Z 0100/0124 VRB05KT P6SM OVC070
     FM010400 10004KT 5SM -SN BKN025 OVC050
     FM010600 12004KT 6SM BR OVC040
      TEMPO 0106/0109 5SM -FZRA BR OVC025
     FM010900 17004KT 2SM -RAPLSN SCT008 OVC025
     FM011200 18004KT 5SM -RA OVC025
      TEMPO 0114/0118 2SM -RA OVC015
     FM011800 19004KT 5SM -RA OVC020
     FM012100 27006KT 3SM -SN OVC010=

USA.gov is the U.S. government's official web portal to all federal, state and local government web resources and services.